Aviation Digital Data Service (ADDS)

Output produced by TAFs form (0334 UTC 27 September 2016)
found at http://aviationweather.gov/adds/tafs/
 
KASE 262322Z 2700/2724 35009G13KT P6SM SKC 
     FM270200 19004KT P6SM FEW250 
     FM271400 00000KT P6SM SKC 
     FM272000 32006KT P6SM FEW250